sensor_id;sensor_type;location;lat;lon;timestamp;P1;durP1;ratioP1;P2;durP2;ratioP2
16928;SDS011;8581;47.334;11.190;2024-03-02T00:02:31;13.10;;;8.90;;
16928;SDS011;8581;47.334;11.190;2024-03-02T00:05:02;10.83;;;8.77;;
16928;SDS011;8581;47.334;11.190;2024-03-02T00:07:35;11.80;;;8.77;;
16928;SDS011;8581;47.334;11.190;2024-03-02T00:10:09;10.47;;;8.80;;
16928;SDS011;8581;47.334;11.190;2024-03-02T00:12:42;10.90;;;8.70;;
16928;SDS011;8581;47.334;11.190;2024-03-02T00:18:20;11.83;;;9.37;;
16928;SDS011;8581;47.334;11.190;2024-03-02T00:21:06;10.47;;;8.87;;
16928;SDS011;8581;47.334;11.190;2024-03-02T00:23:40;13.90;;;10.50;;
16928;SDS011;8581;47.334;11.190;2024-03-02T00:26:13;12.87;;;10.33;;
16928;SDS011;8581;47.334;11.190;2024-03-02T00:28:46;14.87;;;10.90;;
16928;SDS011;8581;47.334;11.190;2024-03-02T00:31:18;14.33;;;11.67;;
16928;SDS011;8581;47.334;11.190;2024-03-02T00:33:49;15.70;;;12.43;;
16928;SDS011;8581;47.334;11.190;2024-03-02T00:36:24;17.37;;;11.33;;
16928;SDS011;8581;47.334;11.190;2024-03-02T00:38:54;18.00;;;12.67;;
16928;SDS011;8581;47.334;11.190;2024-03-02T00:41:27;20.87;;;12.63;;
16928;SDS011;8581;47.334;11.190;2024-03-02T00:46:45;15.97;;;12.47;;
16928;SDS011;8581;47.334;11.190;2024-03-02T00:49:18;18.73;;;12.70;;
16928;SDS011;8581;47.334;11.190;2024-03-02T00:51:51;15.23;;;11.07;;
16928;SDS011;8581;47.334;11.190;2024-03-02T00:54:23;16.70;;;12.90;;
16928;SDS011;8581;47.334;11.190;2024-03-02T00:56:55;17.77;;;13.37;;
16928;SDS011;8581;47.334;11.190;2024-03-02T00:59:26;18.30;;;14.50;;
16928;SDS011;8581;47.334;11.190;2024-03-02T01:01:58;18.03;;;14.20;;
16928;SDS011;8581;47.334;11.190;2024-03-02T01:04:29;19.53;;;13.90;;
16928;SDS011;8581;47.334;11.190;2024-03-02T01:07:01;19.10;;;14.57;;
16928;SDS011;8581;47.334;11.190;2024-03-02T01:09:33;19.63;;;15.30;;
16928;SDS011;8581;47.334;11.190;2024-03-02T01:12:04;19.63;;;14.80;;
16928;SDS011;8581;47.334;11.190;2024-03-02T01:14:37;16.93;;;14.03;;
16928;SDS011;8581;47.334;11.190;2024-03-02T01:17:09;16.13;;;13.67;;
16928;SDS011;8581;47.334;11.190;2024-03-02T01:19:41;16.37;;;13.27;;
16928;SDS011;8581;47.334;11.190;2024-03-02T01:22:12;14.90;;;12.87;;
16928;SDS011;8581;47.334;11.190;2024-03-02T01:24:43;16.87;;;13.90;;
16928;SDS011;8581;47.334;11.190;2024-03-02T01:27:15;16.67;;;13.63;;
16928;SDS011;8581;47.334;11.190;2024-03-02T01:29:47;16.47;;;14.30;;
16928;SDS011;8581;47.334;11.190;2024-03-02T01:32:18;18.10;;;14.90;;
16928;SDS011;8581;47.334;11.190;2024-03-02T01:34:50;16.60;;;14.10;;
16928;SDS011;8581;47.334;11.190;2024-03-02T01:37:21;20.97;;;15.73;;
16928;SDS011;8581;47.334;11.190;2024-03-02T01:39:53;18.40;;;14.70;;
16928;SDS011;8581;47.334;11.190;2024-03-02T01:42:25;17.67;;;14.97;;
16928;SDS011;8581;47.334;11.190;2024-03-02T01:44:56;17.63;;;15.20;;
16928;SDS011;8581;47.334;11.190;2024-03-02T01:47:28;20.40;;;15.13;;
16928;SDS011;8581;47.334;11.190;2024-03-02T01:49:59;18.17;;;14.67;;
16928;SDS011;8581;47.334;11.190;2024-03-02T01:52:31;17.40;;;15.37;;
16928;SDS011;8581;47.334;11.190;2024-03-02T01:55:03;19.83;;;16.17;;
16928;SDS011;8581;47.334;11.190;2024-03-02T01:57:35;21.27;;;16.97;;
16928;SDS011;8581;47.334;11.190;2024-03-02T02:00:07;78.13;;;19.27;;
16928;SDS011;8581;47.334;11.190;2024-03-02T02:02:39;79.67;;;20.63;;
16928;SDS011;8581;47.334;11.190;2024-03-02T02:05:11;66.93;;;20.13;;
16928;SDS011;8581;47.334;11.190;2024-03-02T02:07:43;30.40;;;18.90;;
16928;SDS011;8581;47.334;11.190;2024-03-02T02:10:14;43.60;;;21.40;;
16928;SDS011;8581;47.334;11.190;2024-03-02T02:12:46;26.53;;;20.07;;
16928;SDS011;8581;47.334;11.190;2024-03-02T02:15:21;94.03;;;21.93;;
16928;SDS011;8581;47.334;11.190;2024-03-02T02:17:58;44.97;;;20.97;;
16928;SDS011;8581;47.334;11.190;2024-03-02T02:20:30;39.87;;;20.80;;
16928;SDS011;8581;47.334;11.190;2024-03-02T02:23:02;44.07;;;20.53;;
16928;SDS011;8581;47.334;11.190;2024-03-02T02:25:33;40.23;;;20.93;;
16928;SDS011;8581;47.334;11.190;2024-03-02T02:28:05;41.93;;;20.47;;
16928;SDS011;8581;47.334;11.190;2024-03-02T02:30:36;46.57;;;21.57;;
16928;SDS011;8581;47.334;11.190;2024-03-02T02:33:08;46.63;;;19.90;;
16928;SDS011;8581;47.334;11.190;2024-03-02T02:35:40;25.67;;;18.50;;
16928;SDS011;8581;47.334;11.190;2024-03-02T02:38:12;26.37;;;19.63;;
16928;SDS011;8581;47.334;11.190;2024-03-02T02:40:43;28.70;;;20.03;;
16928;SDS011;8581;47.334;11.190;2024-03-02T02:43:15;25.90;;;19.77;;
16928;SDS011;8581;47.334;11.190;2024-03-02T02:45:47;24.63;;;19.43;;
16928;SDS011;8581;47.334;11.190;2024-03-02T02:48:18;26.30;;;19.20;;
16928;SDS011;8581;47.334;11.190;2024-03-02T02:50:50;29.17;;;18.97;;
16928;SDS011;8581;47.334;11.190;2024-03-02T02:53:22;25.50;;;18.63;;
16928;SDS011;8581;47.334;11.190;2024-03-02T02:55:53;27.87;;;18.80;;
16928;SDS011;8581;47.334;11.190;2024-03-02T02:58:25;24.73;;;17.43;;
16928;SDS011;8581;47.334;11.190;2024-03-02T03:00:56;26.17;;;18.97;;
16928;SDS011;8581;47.334;11.190;2024-03-02T03:03:28;23.43;;;17.90;;
16928;SDS011;8581;47.334;11.190;2024-03-02T03:06:00;25.97;;;19.73;;
16928;SDS011;8581;47.334;11.190;2024-03-02T03:08:31;29.13;;;20.07;;
16928;SDS011;8581;47.334;11.190;2024-03-02T03:11:03;25.57;;;18.97;;
16928;SDS011;8581;47.334;11.190;2024-03-02T03:13:35;26.67;;;19.63;;
16928;SDS011;8581;47.334;11.190;2024-03-02T03:16:06;23.60;;;17.70;;
16928;SDS011;8581;47.334;11.190;2024-03-02T03:18:38;24.07;;;17.67;;
16928;SDS011;8581;47.334;11.190;2024-03-02T03:21:09;25.77;;;17.60;;
16928;SDS011;8581;47.334;11.190;2024-03-02T03:23:41;26.30;;;18.60;;
16928;SDS011;8581;47.334;11.190;2024-03-02T03:26:13;26.97;;;18.93;;
16928;SDS011;8581;47.334;11.190;2024-03-02T03:28:44;22.13;;;16.70;;
16928;SDS011;8581;47.334;11.190;2024-03-02T03:31:16;22.57;;;17.73;;
16928;SDS011;8581;47.334;11.190;2024-03-02T03:33:47;27.80;;;18.30;;
16928;SDS011;8581;47.334;11.190;2024-03-02T03:36:19;25.27;;;16.80;;
16928;SDS011;8581;47.334;11.190;2024-03-02T03:38:51;24.10;;;17.80;;
16928;SDS011;8581;47.334;11.190;2024-03-02T03:41:22;22.33;;;17.00;;
16928;SDS011;8581;47.334;11.190;2024-03-02T03:43:54;21.27;;;16.63;;
16928;SDS011;8581;47.334;11.190;2024-03-02T03:46:26;22.87;;;16.90;;
16928;SDS011;8581;47.334;11.190;2024-03-02T03:48:57;22.53;;;17.60;;
16928;SDS011;8581;47.334;11.190;2024-03-02T03:51:29;20.83;;;16.17;;
16928;SDS011;8581;47.334;11.190;2024-03-02T03:54:00;23.67;;;17.47;;
16928;SDS011;8581;47.334;11.190;2024-03-02T03:56:32;21.70;;;16.53;;
16928;SDS011;8581;47.334;11.190;2024-03-02T03:59:04;19.87;;;15.47;;
16928;SDS011;8581;47.334;11.190;2024-03-02T04:01:35;20.57;;;15.93;;
16928;SDS011;8581;47.334;11.190;2024-03-02T04:04:07;18.07;;;14.30;;
16928;SDS011;8581;47.334;11.190;2024-03-02T04:06:38;20.83;;;16.20;;
16928;SDS011;8581;47.334;11.190;2024-03-02T04:09:10;17.17;;;14.57;;
16928;SDS011;8581;47.334;11.190;2024-03-02T04:11:42;18.50;;;15.07;;
16928;SDS011;8581;47.334;11.190;2024-03-02T04:14:13;18.50;;;14.87;;
16928;SDS011;8581;47.334;11.190;2024-03-02T04:16:45;17.73;;;15.13;;
16928;SDS011;8581;47.334;11.190;2024-03-02T04:19:17;19.27;;;14.77;;
16928;SDS011;8581;47.334;11.190;2024-03-02T04:21:48;14.13;;;12.63;;
16928;SDS011;8581;47.334;11.190;2024-03-02T04:24:20;19.03;;;13.57;;
16928;SDS011;8581;47.334;11.190;2024-03-02T04:26:51;14.73;;;12.67;;
16928;SDS011;8581;47.334;11.190;2024-03-02T04:29:23;12.93;;;11.23;;
16928;SDS011;8581;47.334;11.190;2024-03-02T04:31:55;15.37;;;11.90;;
16928;SDS011;8581;47.334;11.190;2024-03-02T04:34:26;14.03;;;11.63;;
16928;SDS011;8581;47.334;11.190;2024-03-02T04:36:58;14.13;;;11.57;;
16928;SDS011;8581;47.334;11.190;2024-03-02T04:39:29;12.67;;;11.10;;
16928;SDS011;8581;47.334;11.190;2024-03-02T04:42:01;11.90;;;10.70;;
16928;SDS011;8581;47.334;11.190;2024-03-02T04:44:33;12.77;;;11.30;;
16928;SDS011;8581;47.334;11.190;2024-03-02T04:47:04;13.17;;;11.80;;
16928;SDS011;8581;47.334;11.190;2024-03-02T04:49:36;13.17;;;11.20;;
16928;SDS011;8581;47.334;11.190;2024-03-02T04:52:08;13.77;;;12.00;;
16928;SDS011;8581;47.334;11.190;2024-03-02T04:54:39;14.07;;;11.67;;
16928;SDS011;8581;47.334;11.190;2024-03-02T04:57:16;13.47;;;10.97;;
16928;SDS011;8581;47.334;11.190;2024-03-02T04:59:48;12.40;;;11.10;;
16928;SDS011;8581;47.334;11.190;2024-03-02T05:02:19;12.00;;;10.80;;
16928;SDS011;8581;47.334;11.190;2024-03-02T05:04:51;12.50;;;11.10;;
16928;SDS011;8581;47.334;11.190;2024-03-02T05:07:23;12.23;;;10.50;;
16928;SDS011;8581;47.334;11.190;2024-03-02T05:09:54;12.47;;;10.83;;
16928;SDS011;8581;47.334;11.190;2024-03-02T05:12:26;10.97;;;9.50;;
16928;SDS011;8581;47.334;11.190;2024-03-02T05:15:04;12.10;;;10.80;;
16928;SDS011;8581;47.334;11.190;2024-03-02T05:17:36;12.30;;;10.43;;
16928;SDS011;8581;47.334;11.190;2024-03-02T05:20:08;11.23;;;9.87;;
16928;SDS011;8581;47.334;11.190;2024-03-02T05:22:40;12.23;;;10.53;;
16928;SDS011;8581;47.334;11.190;2024-03-02T05:25:12;13.07;;;11.53;;
16928;SDS011;8581;47.334;11.190;2024-03-02T05:27:43;13.60;;;11.23;;
16928;SDS011;8581;47.334;11.190;2024-03-02T05:30:15;16.50;;;14.77;;
16928;SDS011;8581;47.334;11.190;2024-03-02T05:32:47;14.73;;;13.13;;
16928;SDS011;8581;47.334;11.190;2024-03-02T05:35:24;14.57;;;12.97;;
16928;SDS011;8581;47.334;11.190;2024-03-02T05:37:56;14.47;;;12.67;;
16928;SDS011;8581;47.334;11.190;2024-03-02T05:40:27;13.23;;;10.67;;
16928;SDS011;8581;47.334;11.190;2024-03-02T05:42:59;10.33;;;9.23;;
16928;SDS011;8581;47.334;11.190;2024-03-02T05:45:30;11.33;;;10.20;;
16928;SDS011;8581;47.334;11.190;2024-03-02T05:48:02;12.50;;;10.50;;
16928;SDS011;8581;47.334;11.190;2024-03-02T05:50:34;11.50;;;10.30;;
16928;SDS011;8581;47.334;11.190;2024-03-02T05:53:06;11.80;;;10.60;;
16928;SDS011;8581;47.334;11.190;2024-03-02T05:55:37;11.30;;;9.93;;
16928;SDS011;8581;47.334;11.190;2024-03-02T05:58:09;12.67;;;11.37;;
16928;SDS011;8581;47.334;11.190;2024-03-02T06:00:57;11.37;;;10.00;;
16928;SDS011;8581;47.334;11.190;2024-03-02T06:03:29;10.53;;;9.43;;
16928;SDS011;8581;47.334;11.190;2024-03-02T06:06:01;14.13;;;12.13;;
16928;SDS011;8581;47.334;11.190;2024-03-02T06:08:32;11.20;;;10.00;;
16928;SDS011;8581;47.334;11.190;2024-03-02T06:11:04;16.57;;;14.73;;
16928;SDS011;8581;47.334;11.190;2024-03-02T06:13:36;17.50;;;14.50;;
16928;SDS011;8581;47.334;11.190;2024-03-02T06:16:07;11.37;;;10.23;;
16928;SDS011;8581;47.334;11.190;2024-03-02T06:18:39;11.40;;;9.27;;
16928;SDS011;8581;47.334;11.190;2024-03-02T06:21:11;12.27;;;10.67;;
16928;SDS011;8581;47.334;11.190;2024-03-02T06:23:42;12.93;;;11.60;;
16928;SDS011;8581;47.334;11.190;2024-03-02T06:26:14;11.30;;;10.07;;
16928;SDS011;8581;47.334;11.190;2024-03-02T06:28:46;9.90;;;8.90;;
16928;SDS011;8581;47.334;11.190;2024-03-02T06:31:17;9.23;;;8.30;;
16928;SDS011;8581;47.334;11.190;2024-03-02T06:33:49;8.67;;;7.77;;
16928;SDS011;8581;47.334;11.190;2024-03-02T06:36:20;9.27;;;7.77;;
16928;SDS011;8581;47.334;11.190;2024-03-02T06:38:52;8.50;;;7.60;;
16928;SDS011;8581;47.334;11.190;2024-03-02T06:41:24;9.23;;;7.77;;
16928;SDS011;8581;47.334;11.190;2024-03-02T06:43:55;9.77;;;8.47;;
16928;SDS011;8581;47.334;11.190;2024-03-02T06:46:27;9.83;;;8.13;;
16928;SDS011;8581;47.334;11.190;2024-03-02T06:48:58;9.23;;;8.00;;
16928;SDS011;8581;47.334;11.190;2024-03-02T06:51:30;11.03;;;8.97;;
16928;SDS011;8581;47.334;11.190;2024-03-02T06:54:02;11.30;;;9.50;;
16928;SDS011;8581;47.334;11.190;2024-03-02T06:56:33;10.20;;;9.13;;
16928;SDS011;8581;47.334;11.190;2024-03-02T06:59:05;13.10;;;11.80;;
16928;SDS011;8581;47.334;11.190;2024-03-02T07:01:37;10.63;;;9.30;;
16928;SDS011;8581;47.334;11.190;2024-03-02T07:04:08;11.60;;;10.40;;
16928;SDS011;8581;47.334;11.190;2024-03-02T07:06:40;11.60;;;10.50;;
16928;SDS011;8581;47.334;11.190;2024-03-02T07:09:11;7.90;;;7.10;;
16928;SDS011;8581;47.334;11.190;2024-03-02T07:11:43;7.97;;;7.17;;
16928;SDS011;8581;47.334;11.190;2024-03-02T07:14:15;7.13;;;6.47;;
16928;SDS011;8581;47.334;11.190;2024-03-02T07:16:46;7.57;;;6.87;;
16928;SDS011;8581;47.334;11.190;2024-03-02T07:19:18;5.93;;;5.33;;
16928;SDS011;8581;47.334;11.190;2024-03-02T07:21:49;6.00;;;4.97;;
16928;SDS011;8581;47.334;11.190;2024-03-02T07:24:21;5.93;;;5.33;;
16928;SDS011;8581;47.334;11.190;2024-03-02T07:26:53;5.33;;;4.83;;
16928;SDS011;8581;47.334;11.190;2024-03-02T07:29:24;4.73;;;4.33;;
16928;SDS011;8581;47.334;11.190;2024-03-02T07:31:56;5.10;;;4.70;;
16928;SDS011;8581;47.334;11.190;2024-03-02T07:34:27;4.23;;;3.93;;
16928;SDS011;8581;47.334;11.190;2024-03-02T07:36:59;3.50;;;3.20;;
16928;SDS011;8581;47.334;11.190;2024-03-02T07:39:31;3.63;;;3.30;;
16928;SDS011;8581;47.334;11.190;2024-03-02T07:42:02;4.00;;;3.60;;
16928;SDS011;8581;47.334;11.190;2024-03-02T07:44:34;5.40;;;4.87;;
16928;SDS011;8581;47.334;11.190;2024-03-02T07:47:06;5.57;;;5.07;;
16928;SDS011;8581;47.334;11.190;2024-03-02T07:49:37;4.50;;;4.10;;
16928;SDS011;8581;47.334;11.190;2024-03-02T07:52:10;4.20;;;3.77;;
16928;SDS011;8581;47.334;11.190;2024-03-02T07:54:41;4.17;;;3.87;;
16928;SDS011;8581;47.334;11.190;2024-03-02T07:57:13;6.00;;;5.40;;
16928;SDS011;8581;47.334;11.190;2024-03-02T07:59:44;3.70;;;3.40;;
16928;SDS011;8581;47.334;11.190;2024-03-02T08:02:16;3.30;;;3.00;;
16928;SDS011;8581;47.334;11.190;2024-03-02T08:04:48;3.27;;;2.97;;
16928;SDS011;8581;47.334;11.190;2024-03-02T08:07:19;2.57;;;2.37;;
16928;SDS011;8581;47.334;11.190;2024-03-02T08:09:51;3.00;;;2.60;;
16928;SDS011;8581;47.334;11.190;2024-03-02T08:12:23;5.30;;;4.10;;
16928;SDS011;8581;47.334;11.190;2024-03-02T08:14:54;5.30;;;4.07;;
16928;SDS011;8581;47.334;11.190;2024-03-02T08:17:26;2.87;;;2.63;;
16928;SDS011;8581;47.334;11.190;2024-03-02T08:19:58;2.73;;;2.53;;
16928;SDS011;8581;47.334;11.190;2024-03-02T08:22:29;3.00;;;2.80;;
16928;SDS011;8581;47.334;11.190;2024-03-02T08:25:01;2.17;;;1.87;;
16928;SDS011;8581;47.334;11.190;2024-03-02T08:27:32;1.67;;;1.57;;
16928;SDS011;8581;47.334;11.190;2024-03-02T08:30:04;2.10;;;1.90;;
16928;SDS011;8581;47.334;11.190;2024-03-02T08:32:37;1.60;;;1.50;;
16928;SDS011;8581;47.334;11.190;2024-03-02T08:35:09;1.83;;;1.40;;
16928;SDS011;8581;47.334;11.190;2024-03-02T08:37:41;1.10;;;1.00;;
16928;SDS011;8581;47.334;11.190;2024-03-02T08:40:12;1.00;;;0.90;;
16928;SDS011;8581;47.334;11.190;2024-03-02T08:42:44;0.80;;;0.80;;
16928;SDS011;8581;47.334;11.190;2024-03-02T08:45:15;2.23;;;0.70;;
16928;SDS011;8581;47.334;11.190;2024-03-02T08:47:47;0.80;;;0.80;;
16928;SDS011;8581;47.334;11.190;2024-03-02T08:50:19;1.03;;;0.93;;
16928;SDS011;8581;47.334;11.190;2024-03-02T08:52:50;1.73;;;1.00;;
16928;SDS011;8581;47.334;11.190;2024-03-02T08:55:22;1.80;;;0.87;;
16928;SDS011;8581;47.334;11.190;2024-03-02T08:57:53;1.23;;;0.90;;
16928;SDS011;8581;47.334;11.190;2024-03-02T09:00:25;0.70;;;0.70;;
16928;SDS011;8581;47.334;11.190;2024-03-02T09:02:57;0.80;;;0.80;;
16928;SDS011;8581;47.334;11.190;2024-03-02T09:05:28;1.13;;;0.73;;
16928;SDS011;8581;47.334;11.190;2024-03-02T09:08:00;1.20;;;0.80;;
16928;SDS011;8581;47.334;11.190;2024-03-02T09:10:32;0.70;;;0.70;;
16928;SDS011;8581;47.334;11.190;2024-03-02T09:13:03;0.97;;;0.87;;
16928;SDS011;8581;47.334;11.190;2024-03-02T09:15:35;0.97;;;0.90;;
16928;SDS011;8581;47.334;11.190;2024-03-02T09:18:07;0.93;;;0.80;;
16928;SDS011;8581;47.334;11.190;2024-03-02T09:20:38;1.00;;;0.90;;
16928;SDS011;8581;47.334;11.190;2024-03-02T09:23:10;0.80;;;0.80;;
16928;SDS011;8581;47.334;11.190;2024-03-02T09:25:41;0.87;;;0.80;;
16928;SDS011;8581;47.334;11.190;2024-03-02T09:28:15;1.20;;;0.77;;
16928;SDS011;8581;47.334;11.190;2024-03-02T09:30:45;1.03;;;0.97;;
16928;SDS011;8581;47.334;11.190;2024-03-02T09:33:16;1.43;;;1.10;;
16928;SDS011;8581;47.334;11.190;2024-03-02T09:35:48;1.30;;;1.20;;
16928;SDS011;8581;47.334;11.190;2024-03-02T09:38:20;1.47;;;1.10;;
16928;SDS011;8581;47.334;11.190;2024-03-02T09:40:51;2.53;;;1.20;;
16928;SDS011;8581;47.334;11.190;2024-03-02T09:43:23;1.20;;;1.10;;
16928;SDS011;8581;47.334;11.190;2024-03-02T09:45:54;1.70;;;1.30;;
16928;SDS011;8581;47.334;11.190;2024-03-02T09:48:26;2.93;;;1.17;;
16928;SDS011;8581;47.334;11.190;2024-03-02T09:50:58;2.93;;;1.33;;
16928;SDS011;8581;47.334;11.190;2024-03-02T09:53:31;2.20;;;1.00;;
16928;SDS011;8581;47.334;11.190;2024-03-02T09:56:01;1.80;;;1.40;;
16928;SDS011;8581;47.334;11.190;2024-03-02T09:58:33;1.83;;;1.60;;
16928;SDS011;8581;47.334;11.190;2024-03-02T10:01:06;1.57;;;1.27;;
16928;SDS011;8581;47.334;11.190;2024-03-02T10:03:37;2.77;;;1.80;;
16928;SDS011;8581;47.334;11.190;2024-03-02T10:08:52;2.27;;;1.90;;
16928;SDS011;8581;47.334;11.190;2024-03-02T10:11:27;2.80;;;2.10;;
16928;SDS011;8581;47.334;11.190;2024-03-02T10:14:05;2.53;;;1.77;;
16928;SDS011;8581;47.334;11.190;2024-03-02T10:16:39;1.73;;;1.33;;
16928;SDS011;8581;47.334;11.190;2024-03-02T10:19:15;3.63;;;1.83;;
16928;SDS011;8581;47.334;11.190;2024-03-02T10:21:54;6.07;;;2.00;;
16928;SDS011;8581;47.334;11.190;2024-03-02T10:24:25;5.30;;;1.87;;
16928;SDS011;8581;47.334;11.190;2024-03-02T10:26:57;3.10;;;2.27;;
16928;SDS011;8581;47.334;11.190;2024-03-02T10:29:29;4.70;;;1.97;;
16928;SDS011;8581;47.334;11.190;2024-03-02T10:32:01;3.63;;;1.80;;
16928;SDS011;8581;47.334;11.190;2024-03-02T10:34:32;6.20;;;2.07;;
16928;SDS011;8581;47.334;11.190;2024-03-02T10:37:04;2.95;;;1.47;;
16928;SDS011;8581;47.334;11.190;2024-03-02T10:39:35;6.15;;;1.77;;
16928;SDS011;8581;47.334;11.190;2024-03-02T10:42:07;6.25;;;1.60;;
16928;SDS011;8581;47.334;11.190;2024-03-02T10:44:39;2.20;;;1.30;;
16928;SDS011;8581;47.334;11.190;2024-03-02T10:47:10;1.70;;;1.27;;
16928;SDS011;8581;47.334;11.190;2024-03-02T10:49:42;3.03;;;1.83;;
16928;SDS011;8581;47.334;11.190;2024-03-02T10:52:14;1.80;;;1.60;;
16928;SDS011;8581;47.334;11.190;2024-03-02T10:54:45;5.45;;;1.70;;
16928;SDS011;8581;47.334;11.190;2024-03-02T10:57:17;4.20;;;1.80;;
16928;SDS011;8581;47.334;11.190;2024-03-02T10:59:51;2.92;;;1.60;;
16928;SDS011;8581;47.334;11.190;2024-03-02T11:02:24;3.90;;;2.12;;
16928;SDS011;8581;47.334;11.190;2024-03-02T11:04:56;6.65;;;1.60;;
16928;SDS011;8581;47.334;11.190;2024-03-02T11:07:27;2.02;;;1.60;;
16928;SDS011;8581;47.334;11.190;2024-03-02T11:09:59;2.87;;;1.70;;
16928;SDS011;8581;47.334;11.190;2024-03-02T11:12:33;5.87;;;1.77;;
16928;SDS011;8581;47.334;11.190;2024-03-02T11:15:04;4.60;;;1.90;;
16928;SDS011;8581;47.334;11.190;2024-03-02T11:17:36;3.40;;;1.40;;
16928;SDS011;8581;47.334;11.190;2024-03-02T11:20:08;1.80;;;1.27;;
16928;SDS011;8581;47.334;11.190;2024-03-02T11:22:40;2.15;;;1.30;;
16928;SDS011;8581;47.334;11.190;2024-03-02T11:28:06;3.22;;;1.67;;
16928;SDS011;8581;47.334;11.190;2024-03-02T11:33:23;1.52;;;1.42;;
16928;SDS011;8581;47.334;11.190;2024-03-02T11:35:56;2.35;;;1.30;;
16928;SDS011;8581;47.334;11.190;2024-03-02T11:38:28;2.15;;;1.20;;
16928;SDS011;8581;47.334;11.190;2024-03-02T11:41:01;2.40;;;1.30;;
16928;SDS011;8581;47.334;11.190;2024-03-02T11:43:32;1.50;;;1.15;;
16928;SDS011;8581;47.334;11.190;2024-03-02T11:46:04;1.40;;;1.30;;
16928;SDS011;8581;47.334;11.190;2024-03-02T11:48:36;1.70;;;1.20;;
16928;SDS011;8581;47.334;11.190;2024-03-02T11:51:07;2.00;;;1.52;;
16928;SDS011;8581;47.334;11.190;2024-03-02T11:53:39;3.05;;;1.40;;
16928;SDS011;8581;47.334;11.190;2024-03-02T11:56:10;2.30;;;1.50;;
16928;SDS011;8581;47.334;11.190;2024-03-02T11:58:43;1.80;;;1.70;;
16928;SDS011;8581;47.334;11.190;2024-03-02T12:01:14;2.62;;;1.72;;
16928;SDS011;8581;47.334;11.190;2024-03-02T12:03:46;2.75;;;1.52;;
16928;SDS011;8581;47.334;11.190;2024-03-02T12:06:18;2.10;;;1.62;;
16928;SDS011;8581;47.334;11.190;2024-03-02T12:08:52;1.62;;;1.50;;
16928;SDS011;8581;47.334;11.190;2024-03-02T12:11:21;2.98;;;1.50;;
16928;SDS011;8581;47.334;11.190;2024-03-02T12:13:53;3.70;;;1.60;;
16928;SDS011;8581;47.334;11.190;2024-03-02T12:16:25;2.30;;;1.55;;
16928;SDS011;8581;47.334;11.190;2024-03-02T12:18:57;2.33;;;1.62;;
16928;SDS011;8581;47.334;11.190;2024-03-02T12:21:28;1.50;;;1.40;;
16928;SDS011;8581;47.334;11.190;2024-03-02T12:24:01;3.85;;;1.62;;
16928;SDS011;8581;47.334;11.190;2024-03-02T12:26:32;2.17;;;1.40;;
16928;SDS011;8581;47.334;11.190;2024-03-02T12:29:03;3.12;;;1.40;;
16928;SDS011;8581;47.334;11.190;2024-03-02T12:31:35;4.05;;;1.55;;
16928;SDS011;8581;47.334;11.190;2024-03-02T12:34:07;2.02;;;1.40;;
16928;SDS011;8581;47.334;11.190;2024-03-02T12:36:38;2.35;;;1.27;;
16928;SDS011;8581;47.334;11.190;2024-03-02T12:39:10;1.90;;;1.40;;
16928;SDS011;8581;47.334;11.190;2024-03-02T12:41:42;1.72;;;1.50;;
16928;SDS011;8581;47.334;11.190;2024-03-02T12:44:13;1.17;;;1.00;;
16928;SDS011;8581;47.334;11.190;2024-03-02T12:46:45;1.80;;;1.20;;
16928;SDS011;8581;47.334;11.190;2024-03-02T12:49:17;1.75;;;1.10;;
16928;SDS011;8581;47.334;11.190;2024-03-02T12:51:48;1.45;;;0.90;;
16928;SDS011;8581;47.334;11.190;2024-03-02T12:54:21;1.90;;;0.95;;
16928;SDS011;8581;47.334;11.190;2024-03-02T12:56:52;1.70;;;0.85;;
16928;SDS011;8581;47.334;11.190;2024-03-02T12:59:23;2.02;;;0.60;;
16928;SDS011;8581;47.334;11.190;2024-03-02T13:01:56;0.50;;;0.50;;
16928;SDS011;8581;47.334;11.190;2024-03-02T13:04:29;2.12;;;0.60;;
16928;SDS011;8581;47.334;11.190;2024-03-02T13:07:00;0.60;;;0.50;;
16928;SDS011;8581;47.334;11.190;2024-03-02T13:09:32;1.25;;;0.60;;
16928;SDS011;8581;47.334;11.190;2024-03-02T13:12:04;1.43;;;0.77;;
16928;SDS011;8581;47.334;11.190;2024-03-02T13:14:36;2.35;;;0.40;;
16928;SDS011;8581;47.334;11.190;2024-03-02T13:17:08;0.50;;;0.50;;
16928;SDS011;8581;47.334;11.190;2024-03-02T13:19:50;0.50;;;0.50;;
16928;SDS011;8581;47.334;11.190;2024-03-02T13:22:21;1.27;;;1.00;;
16928;SDS011;8581;47.334;11.190;2024-03-02T13:24:53;0.90;;;0.35;;
16928;SDS011;8581;47.334;11.190;2024-03-02T13:27:26;1.90;;;0.60;;
16928;SDS011;8581;47.334;11.190;2024-03-02T13:29:57;0.33;;;0.33;;
16928;SDS011;8581;47.334;11.190;2024-03-02T13:32:29;0.85;;;0.40;;
16928;SDS011;8581;47.334;11.190;2024-03-02T13:35:01;0.95;;;0.30;;
16928;SDS011;8581;47.334;11.190;2024-03-02T13:37:32;1.55;;;0.40;;
16928;SDS011;8581;47.334;11.190;2024-03-02T13:40:04;1.25;;;0.60;;
16928;SDS011;8581;47.334;11.190;2024-03-02T13:42:37;0.37;;;0.20;;
16928;SDS011;8581;47.334;11.190;2024-03-02T13:45:08;0.72;;;0.45;;
16928;SDS011;8581;47.334;11.190;2024-03-02T13:47:40;2.83;;;0.40;;
16928;SDS011;8581;47.334;11.190;2024-03-02T13:50:12;1.60;;;0.40;;
16928;SDS011;8581;47.334;11.190;2024-03-02T13:52:43;0.57;;;0.33;;
16928;SDS011;8581;47.334;11.190;2024-03-02T13:55:15;0.40;;;0.30;;
16928;SDS011;8581;47.334;11.190;2024-03-02T13:57:47;0.85;;;0.45;;
16928;SDS011;8581;47.334;11.190;2024-03-02T14:00:18;0.60;;;0.50;;
16928;SDS011;8581;47.334;11.190;2024-03-02T14:02:50;1.60;;;0.50;;
16928;SDS011;8581;47.334;11.190;2024-03-02T14:05:22;0.45;;;0.45;;
16928;SDS011;8581;47.334;11.190;2024-03-02T14:07:53;0.30;;;0.30;;
16928;SDS011;8581;47.334;11.190;2024-03-02T14:10:25;1.65;;;0.50;;
16928;SDS011;8581;47.334;11.190;2024-03-02T14:12:57;1.50;;;0.50;;
16928;SDS011;8581;47.334;11.190;2024-03-02T14:15:28;1.98;;;0.60;;
16928;SDS011;8581;47.334;11.190;2024-03-02T14:18:01;2.58;;;0.60;;
16928;SDS011;8581;47.334;11.190;2024-03-02T14:20:32;0.37;;;0.37;;
16928;SDS011;8581;47.334;11.190;2024-03-02T14:23:03;0.70;;;0.40;;
16928;SDS011;8581;47.334;11.190;2024-03-02T14:25:35;1.57;;;0.40;;
16928;SDS011;8581;47.334;11.190;2024-03-02T14:28:07;0.40;;;0.40;;
16928;SDS011;8581;47.334;11.190;2024-03-02T14:30:38;1.20;;;0.53;;
16928;SDS011;8581;47.334;11.190;2024-03-02T14:33:10;1.30;;;0.30;;
16928;SDS011;8581;47.334;11.190;2024-03-02T14:35:42;1.35;;;0.45;;
16928;SDS011;8581;47.334;11.190;2024-03-02T14:38:13;0.50;;;0.50;;
16928;SDS011;8581;47.334;11.190;2024-03-02T14:40:45;0.55;;;0.53;;
16928;SDS011;8581;47.334;11.190;2024-03-02T14:43:16;1.55;;;0.50;;
16928;SDS011;8581;47.334;11.190;2024-03-02T14:45:48;0.57;;;0.40;;
16928;SDS011;8581;47.334;11.190;2024-03-02T14:48:20;0.70;;;0.45;;
16928;SDS011;8581;47.334;11.190;2024-03-02T14:50:51;0.30;;;0.30;;
16928;SDS011;8581;47.334;11.190;2024-03-02T14:53:23;0.30;;;0.30;;
16928;SDS011;8581;47.334;11.190;2024-03-02T14:55:59;2.75;;;0.40;;
16928;SDS011;8581;47.334;11.190;2024-03-02T14:58:31;2.33;;;0.45;;
16928;SDS011;8581;47.334;11.190;2024-03-02T15:01:03;0.50;;;0.30;;
16928;SDS011;8581;47.334;11.190;2024-03-02T15:03:35;1.12;;;0.47;;
16928;SDS011;8581;47.334;11.190;2024-03-02T15:06:06;1.05;;;0.85;;
16928;SDS011;8581;47.334;11.190;2024-03-02T15:08:38;1.57;;;0.90;;
16928;SDS011;8581;47.334;11.190;2024-03-02T15:11:10;3.80;;;1.00;;
16928;SDS011;8581;47.334;11.190;2024-03-02T15:13:41;2.13;;;1.07;;
16928;SDS011;8581;47.334;11.190;2024-03-02T15:16:13;2.30;;;0.70;;
16928;SDS011;8581;47.334;11.190;2024-03-02T15:18:45;1.57;;;0.70;;